sensor_id;sensor_type;location;lat;lon;timestamp;temperature;humidity
10247;DHT22;5168;47.854;7.944;2023-07-30T00:01:24;16.00;99.90
10247;DHT22;5168;47.854;7.944;2023-07-30T00:03:50;16.10;99.90
10247;DHT22;5168;47.854;7.944;2023-07-30T00:06:15;16.00;99.90
10247;DHT22;5168;47.854;7.944;2023-07-30T00:11:07;15.70;99.90
10247;DHT22;5168;47.854;7.944;2023-07-30T00:13:32;15.30;99.90
10247;DHT22;5168;47.854;7.944;2023-07-30T00:15:58;15.40;99.90
10247;DHT22;5168;47.854;7.944;2023-07-30T00:20:49;15.70;99.90
10247;DHT22;5168;47.854;7.944;2023-07-30T00:25:41;15.10;99.90
10247;DHT22;5168;47.854;7.944;2023-07-30T00:28:06;15.40;99.90
10247;DHT22;5168;47.854;7.944;2023-07-30T00:30:32;15.20;99.90
10247;DHT22;5168;47.854;7.944;2023-07-30T00:32:57;14.80;99.90
10247;DHT22;5168;47.854;7.944;2023-07-30T00:35:23;15.70;99.90
10247;DHT22;5168;47.854;7.944;2023-07-30T00:42:40;15.90;99.90
10247;DHT22;5168;47.854;7.944;2023-07-30T00:45:06;15.00;99.90
10247;DHT22;5168;47.854;7.944;2023-07-30T00:47:32;15.10;99.90
10247;DHT22;5168;47.854;7.944;2023-07-30T00:49:58;15.00;99.90
10247;DHT22;5168;47.854;7.944;2023-07-30T00:52:24;15.10;99.90
10247;DHT22;5168;47.854;7.944;2023-07-30T00:54:52;15.10;99.90
10247;DHT22;5168;47.854;7.944;2023-07-30T00:57:19;15.70;99.90
10247;DHT22;5168;47.854;7.944;2023-07-30T00:59:46;15.50;99.90
10247;DHT22;5168;47.854;7.944;2023-07-30T01:02:13;15.40;99.90
10247;DHT22;5168;47.854;7.944;2023-07-30T01:04:39;15.60;99.90
10247;DHT22;5168;47.854;7.944;2023-07-30T01:07:06;15.30;99.90
10247;DHT22;5168;47.854;7.944;2023-07-30T01:09:33;15.50;99.90
10247;DHT22;5168;47.854;7.944;2023-07-30T01:11:59;15.40;99.90
10247;DHT22;5168;47.854;7.944;2023-07-30T01:14:25;15.30;99.90
10247;DHT22;5168;47.854;7.944;2023-07-30T01:24:12;15.60;99.90
10247;DHT22;5168;47.854;7.944;2023-07-30T01:26:43;15.50;99.90
10247;DHT22;5168;47.854;7.944;2023-07-30T01:29:15;15.30;99.90
10247;DHT22;5168;47.854;7.944;2023-07-30T01:31:42;14.70;99.90
10247;DHT22;5168;47.854;7.944;2023-07-30T01:34:10;15.20;99.90
10247;DHT22;5168;47.854;7.944;2023-07-30T01:36:37;15.50;99.90
10247;DHT22;5168;47.854;7.944;2023-07-30T01:39:04;15.00;99.90
10247;DHT22;5168;47.854;7.944;2023-07-30T01:41:30;14.90;99.90
10247;DHT22;5168;47.854;7.944;2023-07-30T01:43:55;15.30;99.90
10247;DHT22;5168;47.854;7.944;2023-07-30T01:48:47;15.50;99.90
10247;DHT22;5168;47.854;7.944;2023-07-30T01:53:38;15.60;99.90
10247;DHT22;5168;47.854;7.944;2023-07-30T01:56:04;14.80;99.90
10247;DHT22;5168;47.854;7.944;2023-07-30T02:03:21;15.00;99.90
10247;DHT22;5168;47.854;7.944;2023-07-30T02:05:47;15.30;99.90
10247;DHT22;5168;47.854;7.944;2023-07-30T02:08:12;15.10;99.90
10247;DHT22;5168;47.854;7.944;2023-07-30T02:10:41;15.10;99.90
10247;DHT22;5168;47.854;7.944;2023-07-30T02:13:07;14.60;99.90
10247;DHT22;5168;47.854;7.944;2023-07-30T02:22:50;15.20;99.90
10247;DHT22;5168;47.854;7.944;2023-07-30T02:25:16;15.10;99.90
10247;DHT22;5168;47.854;7.944;2023-07-30T02:27:41;14.70;99.90
10247;DHT22;5168;47.854;7.944;2023-07-30T02:37:25;15.70;99.90
10247;DHT22;5168;47.854;7.944;2023-07-30T02:39:50;14.90;99.90
10247;DHT22;5168;47.854;7.944;2023-07-30T02:42:16;15.20;99.90
10247;DHT22;5168;47.854;7.944;2023-07-30T02:47:07;15.10;99.90
10247;DHT22;5168;47.854;7.944;2023-07-30T02:49:33;14.80;99.90
10247;DHT22;5168;47.854;7.944;2023-07-30T02:51:58;15.30;99.90
10247;DHT22;5168;47.854;7.944;2023-07-30T02:59:15;14.70;99.90
10247;DHT22;5168;47.854;7.944;2023-07-30T03:01:41;15.60;99.90
10247;DHT22;5168;47.854;7.944;2023-07-30T03:04:06;15.20;99.90
10247;DHT22;5168;47.854;7.944;2023-07-30T03:08:58;15.20;99.90
10247;DHT22;5168;47.854;7.944;2023-07-30T03:11:23;15.20;99.90
10247;DHT22;5168;47.854;7.944;2023-07-30T03:13:49;14.50;99.90
10247;DHT22;5168;47.854;7.944;2023-07-30T03:18:40;15.10;99.90
10247;DHT22;5168;47.854;7.944;2023-07-30T03:21:06;14.70;99.90
10247;DHT22;5168;47.854;7.944;2023-07-30T03:25:58;14.60;99.90
10247;DHT22;5168;47.854;7.944;2023-07-30T03:28:26;14.80;99.90
10247;DHT22;5168;47.854;7.944;2023-07-30T03:30:52;14.60;99.90
10247;DHT22;5168;47.854;7.944;2023-07-30T03:35:43;14.40;99.90
10247;DHT22;5168;47.854;7.944;2023-07-30T03:38:09;14.40;99.90
10247;DHT22;5168;47.854;7.944;2023-07-30T03:40:34;14.80;99.90
10247;DHT22;5168;47.854;7.944;2023-07-30T03:50:18;14.80;99.90
10247;DHT22;5168;47.854;7.944;2023-07-30T03:52:43;14.50;99.90
10247;DHT22;5168;47.854;7.944;2023-07-30T03:55:09;14.80;99.90
10247;DHT22;5168;47.854;7.944;2023-07-30T04:00:00;15.10;99.90
10247;DHT22;5168;47.854;7.944;2023-07-30T04:02:26;15.10;99.90
10247;DHT22;5168;47.854;7.944;2023-07-30T04:04:52;14.70;99.90
10247;DHT22;5168;47.854;7.944;2023-07-30T04:07:17;15.30;99.90
10247;DHT22;5168;47.854;7.944;2023-07-30T04:12:09;15.10;99.90
10247;DHT22;5168;47.854;7.944;2023-07-30T04:14:35;15.50;99.90
10247;DHT22;5168;47.854;7.944;2023-07-30T04:19:26;14.90;99.90
10247;DHT22;5168;47.854;7.944;2023-07-30T04:24:18;14.80;99.90
10247;DHT22;5168;47.854;7.944;2023-07-30T04:34:02;14.90;99.90
10247;DHT22;5168;47.854;7.944;2023-07-30T04:38:54;15.20;99.90
10247;DHT22;5168;47.854;7.944;2023-07-30T04:41:20;14.80;99.90
10247;DHT22;5168;47.854;7.944;2023-07-30T04:43:45;15.00;99.90
10247;DHT22;5168;47.854;7.944;2023-07-30T04:46:11;14.90;99.90
10247;DHT22;5168;47.854;7.944;2023-07-30T04:48:37;15.00;99.90
10247;DHT22;5168;47.854;7.944;2023-07-30T04:55:58;15.10;99.90
10247;DHT22;5168;47.854;7.944;2023-07-30T05:00:50;15.00;99.90
10247;DHT22;5168;47.854;7.944;2023-07-30T05:03:16;15.10;99.90
10247;DHT22;5168;47.854;7.944;2023-07-30T05:05:41;15.90;99.90
10247;DHT22;5168;47.854;7.944;2023-07-30T05:22:43;15.60;99.90
10247;DHT22;5168;47.854;7.944;2023-07-30T05:25:09;15.20;99.90
10247;DHT22;5168;47.854;7.944;2023-07-30T05:27:35;14.80;99.90
10247;DHT22;5168;47.854;7.944;2023-07-30T05:30:01;15.50;99.90
10247;DHT22;5168;47.854;7.944;2023-07-30T05:32:27;15.50;99.90
10247;DHT22;5168;47.854;7.944;2023-07-30T05:37:18;15.50;99.90
10247;DHT22;5168;47.854;7.944;2023-07-30T05:39:44;15.00;99.90
10247;DHT22;5168;47.854;7.944;2023-07-30T05:42:09;15.00;99.90
10247;DHT22;5168;47.854;7.944;2023-07-30T05:49:26;14.70;99.90
10247;DHT22;5168;47.854;7.944;2023-07-30T05:51:52;14.50;99.90
10247;DHT22;5168;47.854;7.944;2023-07-30T05:54:18;14.60;99.90
10247;DHT22;5168;47.854;7.944;2023-07-30T06:04:01;15.10;99.90
10247;DHT22;5168;47.854;7.944;2023-07-30T06:06:27;15.50;99.90
10247;DHT22;5168;47.854;7.944;2023-07-30T06:08:56;15.50;99.90
10247;DHT22;5168;47.854;7.944;2023-07-30T06:13:48;15.50;99.90
10247;DHT22;5168;47.854;7.944;2023-07-30T06:16:13;15.60;99.90
10247;DHT22;5168;47.854;7.944;2023-07-30T06:21:05;15.50;99.90
10247;DHT22;5168;47.854;7.944;2023-07-30T06:30:49;15.90;99.90
10247;DHT22;5168;47.854;7.944;2023-07-30T06:33:15;15.50;99.90
10247;DHT22;5168;47.854;7.944;2023-07-30T06:35:40;15.80;99.90
10247;DHT22;5168;47.854;7.944;2023-07-30T06:38:08;15.80;99.90
10247;DHT22;5168;47.854;7.944;2023-07-30T06:40:34;14.70;99.90
10247;DHT22;5168;47.854;7.944;2023-07-30T06:50:17;14.70;99.90
10247;DHT22;5168;47.854;7.944;2023-07-30T06:57:35;15.50;99.90
10247;DHT22;5168;47.854;7.944;2023-07-30T07:00:01;15.30;99.90
10247;DHT22;5168;47.854;7.944;2023-07-30T07:02:26;15.80;99.90
10247;DHT22;5168;47.854;7.944;2023-07-30T07:04:53;15.50;99.90
10247;DHT22;5168;47.854;7.944;2023-07-30T07:07:19;15.00;99.90
10247;DHT22;5168;47.854;7.944;2023-07-30T07:09:45;15.40;99.90
10247;DHT22;5168;47.854;7.944;2023-07-30T07:12:11;14.90;99.90
10247;DHT22;5168;47.854;7.944;2023-07-30T07:24:20;15.00;99.90
10247;DHT22;5168;47.854;7.944;2023-07-30T07:26:46;15.70;99.90
10247;DHT22;5168;47.854;7.944;2023-07-30T07:31:37;16.10;99.90
10247;DHT22;5168;47.854;7.944;2023-07-30T07:34:03;15.40;99.90
10247;DHT22;5168;47.854;7.944;2023-07-30T07:36:28;16.20;99.90
10247;DHT22;5168;47.854;7.944;2023-07-30T07:38:54;15.70;99.90
10247;DHT22;5168;47.854;7.944;2023-07-30T07:43:47;15.70;99.90
10247;DHT22;5168;47.854;7.944;2023-07-30T07:46:12;15.70;99.90
10247;DHT22;5168;47.854;7.944;2023-07-30T07:48:41;15.60;99.90
10247;DHT22;5168;47.854;7.944;2023-07-30T07:51:08;16.70;99.90
10247;DHT22;5168;47.854;7.944;2023-07-30T08:00:56;17.80;99.90
10247;DHT22;5168;47.854;7.944;2023-07-30T08:03:22;17.80;99.90
10247;DHT22;5168;47.854;7.944;2023-07-30T08:05:48;17.60;99.90
10247;DHT22;5168;47.854;7.944;2023-07-30T08:08:14;18.10;99.90
10247;DHT22;5168;47.854;7.944;2023-07-30T08:10:40;17.90;99.90
10247;DHT22;5168;47.854;7.944;2023-07-30T08:13:08;17.20;99.90
10247;DHT22;5168;47.854;7.944;2023-07-30T08:22:51;16.80;99.90
10247;DHT22;5168;47.854;7.944;2023-07-30T08:32:36;17.10;99.90
10247;DHT22;5168;47.854;7.944;2023-07-30T08:35:01;17.20;99.90
10247;DHT22;5168;47.854;7.944;2023-07-30T08:39:53;17.00;99.90
10247;DHT22;5168;47.854;7.944;2023-07-30T08:42:18;16.50;99.90
10247;DHT22;5168;47.854;7.944;2023-07-30T08:44:44;16.50;99.90
10247;DHT22;5168;47.854;7.944;2023-07-30T08:47:10;16.80;99.90
10247;DHT22;5168;47.854;7.944;2023-07-30T08:49:36;16.80;99.90
10247;DHT22;5168;47.854;7.944;2023-07-30T08:52:02;17.30;99.90
10247;DHT22;5168;47.854;7.944;2023-07-30T08:54:31;16.90;99.90
10247;DHT22;5168;47.854;7.944;2023-07-30T08:56:57;16.40;99.90
10247;DHT22;5168;47.854;7.944;2023-07-30T08:59:24;16.60;99.90
10247;DHT22;5168;47.854;7.944;2023-07-30T09:01:55;16.50;99.90
10247;DHT22;5168;47.854;7.944;2023-07-30T09:04:22;16.30;99.90
10247;DHT22;5168;47.854;7.944;2023-07-30T09:06:48;16.70;99.90
10247;DHT22;5168;47.854;7.944;2023-07-30T09:09:15;16.10;99.90
10247;DHT22;5168;47.854;7.944;2023-07-30T09:11:40;16.80;99.90
10247;DHT22;5168;47.854;7.944;2023-07-30T09:14:06;17.60;99.90
10247;DHT22;5168;47.854;7.944;2023-07-30T09:16:33;17.40;99.90
10247;DHT22;5168;47.854;7.944;2023-07-30T09:18:58;17.50;99.90
10247;DHT22;5168;47.854;7.944;2023-07-30T09:21:31;17.20;99.90
10247;DHT22;5168;47.854;7.944;2023-07-30T09:23:57;17.70;99.90
10247;DHT22;5168;47.854;7.944;2023-07-30T09:26:23;17.40;99.90
10247;DHT22;5168;47.854;7.944;2023-07-30T09:28:49;17.70;99.90
10247;DHT22;5168;47.854;7.944;2023-07-30T09:33:41;18.20;99.90
10247;DHT22;5168;47.854;7.944;2023-07-30T09:36:08;18.50;99.90
10247;DHT22;5168;47.854;7.944;2023-07-30T09:38:42;18.30;99.90
10247;DHT22;5168;47.854;7.944;2023-07-30T09:43:36;18.70;99.90
10247;DHT22;5168;47.854;7.944;2023-07-30T09:46:03;18.50;99.90
10247;DHT22;5168;47.854;7.944;2023-07-30T09:48:32;18.90;99.90
10247;DHT22;5168;47.854;7.944;2023-07-30T09:51:00;18.40;99.90
10247;DHT22;5168;47.854;7.944;2023-07-30T09:53:29;17.90;99.90
10247;DHT22;5168;47.854;7.944;2023-07-30T10:00:48;17.70;99.90
10247;DHT22;5168;47.854;7.944;2023-07-30T10:03:15;17.30;99.90
10247;DHT22;5168;47.854;7.944;2023-07-30T10:05:44;17.50;99.90
10247;DHT22;5168;47.854;7.944;2023-07-30T10:08:16;18.00;99.90
10247;DHT22;5168;47.854;7.944;2023-07-30T10:10:44;18.50;99.90
10247;DHT22;5168;47.854;7.944;2023-07-30T10:13:12;18.10;99.90
10247;DHT22;5168;47.854;7.944;2023-07-30T10:15:38;18.00;99.90
10247;DHT22;5168;47.854;7.944;2023-07-30T10:18:04;17.30;99.90
10247;DHT22;5168;47.854;7.944;2023-07-30T10:20:31;17.20;99.90
10247;DHT22;5168;47.854;7.944;2023-07-30T10:22:58;17.20;99.90
10247;DHT22;5168;47.854;7.944;2023-07-30T10:25:52;17.30;99.90
10247;DHT22;5168;47.854;7.944;2023-07-30T10:28:31;17.50;99.90
10247;DHT22;5168;47.854;7.944;2023-07-30T10:31:00;17.60;99.90
10247;DHT22;5168;47.854;7.944;2023-07-30T10:36:10;16.90;99.90
10247;DHT22;5168;47.854;7.944;2023-07-30T10:38:36;16.80;99.90
10247;DHT22;5168;47.854;7.944;2023-07-30T10:41:04;17.00;99.90
10247;DHT22;5168;47.854;7.944;2023-07-30T10:43:33;17.30;99.90
10247;DHT22;5168;47.854;7.944;2023-07-30T10:46:00;17.20;99.90
10247;DHT22;5168;47.854;7.944;2023-07-30T10:48:40;16.90;99.90
10247;DHT22;5168;47.854;7.944;2023-07-30T10:51:11;17.50;99.90
10247;DHT22;5168;47.854;7.944;2023-07-30T10:56:05;18.50;99.90
10247;DHT22;5168;47.854;7.944;2023-07-30T10:58:33;18.60;99.90
10247;DHT22;5168;47.854;7.944;2023-07-30T11:00:59;19.30;99.90
10247;DHT22;5168;47.854;7.944;2023-07-30T11:05:53;19.30;99.90
10247;DHT22;5168;47.854;7.944;2023-07-30T11:08:19;18.80;99.90
10247;DHT22;5168;47.854;7.944;2023-07-30T11:10:45;18.30;99.90
10247;DHT22;5168;47.854;7.944;2023-07-30T11:15:42;18.70;99.90
10247;DHT22;5168;47.854;7.944;2023-07-30T11:20:34;19.00;99.90
10247;DHT22;5168;47.854;7.944;2023-07-30T11:23:00;18.80;99.90
10247;DHT22;5168;47.854;7.944;2023-07-30T11:25:25;19.30;99.90
10247;DHT22;5168;47.854;7.944;2023-07-30T11:30:19;19.00;99.90
10247;DHT22;5168;47.854;7.944;2023-07-30T11:32:45;18.70;99.90
10247;DHT22;5168;47.854;7.944;2023-07-30T11:35:12;19.00;99.90
10247;DHT22;5168;47.854;7.944;2023-07-30T11:37:40;19.00;99.90
10247;DHT22;5168;47.854;7.944;2023-07-30T11:40:11;19.30;99.90
10247;DHT22;5168;47.854;7.944;2023-07-30T11:42:36;20.00;99.90
10247;DHT22;5168;47.854;7.944;2023-07-30T11:45:17;19.20;99.90
10247;DHT22;5168;47.854;7.944;2023-07-30T11:47:44;19.20;99.90
10247;DHT22;5168;47.854;7.944;2023-07-30T11:50:09;19.40;99.90
10247;DHT22;5168;47.854;7.944;2023-07-30T11:52:35;19.30;99.90
10247;DHT22;5168;47.854;7.944;2023-07-30T11:55:04;20.20;99.90
10247;DHT22;5168;47.854;7.944;2023-07-30T11:57:34;19.90;99.90
10247;DHT22;5168;47.854;7.944;2023-07-30T12:07:22;19.40;99.90
10247;DHT22;5168;47.854;7.944;2023-07-30T12:17:12;19.40;99.90
10247;DHT22;5168;47.854;7.944;2023-07-30T12:19:37;19.30;99.90
10247;DHT22;5168;47.854;7.944;2023-07-30T12:26:55;18.70;99.90
10247;DHT22;5168;47.854;7.944;2023-07-30T12:29:20;18.50;99.90
10247;DHT22;5168;47.854;7.944;2023-07-30T12:31:46;18.80;99.90
10247;DHT22;5168;47.854;7.944;2023-07-30T12:34:12;18.40;99.90
10247;DHT22;5168;47.854;7.944;2023-07-30T12:36:38;18.70;99.90
10247;DHT22;5168;47.854;7.944;2023-07-30T12:46:22;20.00;99.90
10247;DHT22;5168;47.854;7.944;2023-07-30T12:58:32;19.30;99.90
10247;DHT22;5168;47.854;7.944;2023-07-30T13:00:58;19.20;99.90
10247;DHT22;5168;47.854;7.944;2023-07-30T13:03:23;19.10;99.90
10247;DHT22;5168;47.854;7.944;2023-07-30T13:10:41;19.30;99.90
10247;DHT22;5168;47.854;7.944;2023-07-30T13:13:06;20.40;99.90
10247;DHT22;5168;47.854;7.944;2023-07-30T13:15:32;19.90;99.90
10247;DHT22;5168;47.854;7.944;2023-07-30T13:22:50;20.20;99.90
10247;DHT22;5168;47.854;7.944;2023-07-30T13:25:17;19.50;99.90
10247;DHT22;5168;47.854;7.944;2023-07-30T13:30:08;19.10;99.90
10247;DHT22;5168;47.854;7.944;2023-07-30T13:39:52;18.70;99.90
10247;DHT22;5168;47.854;7.944;2023-07-30T13:47:09;19.40;99.90
10247;DHT22;5168;47.854;7.944;2023-07-30T13:49:35;18.10;99.90
10247;DHT22;5168;47.854;7.944;2023-07-30T13:56:52;20.40;99.90
10247;DHT22;5168;47.854;7.944;2023-07-30T13:59:19;20.10;99.90
10247;DHT22;5168;47.854;7.944;2023-07-30T14:01:45;19.40;99.90
10247;DHT22;5168;47.854;7.944;2023-07-30T14:04:13;20.00;99.90
10247;DHT22;5168;47.854;7.944;2023-07-30T14:06:39;18.80;99.90
10247;DHT22;5168;47.854;7.944;2023-07-30T14:09:04;18.70;99.90
10247;DHT22;5168;47.854;7.944;2023-07-30T14:16:23;18.00;99.90
10247;DHT22;5168;47.854;7.944;2023-07-30T14:18:48;18.50;99.90
10247;DHT22;5168;47.854;7.944;2023-07-30T14:21:14;18.10;99.90
10247;DHT22;5168;47.854;7.944;2023-07-30T14:23:40;18.70;99.90
10247;DHT22;5168;47.854;7.944;2023-07-30T14:26:05;18.00;99.90
10247;DHT22;5168;47.854;7.944;2023-07-30T14:28:32;17.80;99.90
10247;DHT22;5168;47.854;7.944;2023-07-30T14:30:57;17.90;99.90
10247;DHT22;5168;47.854;7.944;2023-07-30T14:33:23;18.60;99.90
10247;DHT22;5168;47.854;7.944;2023-07-30T14:40:42;18.70;99.90
10247;DHT22;5168;47.854;7.944;2023-07-30T14:43:08;19.10;99.90
10247;DHT22;5168;47.854;7.944;2023-07-30T14:45:34;19.00;99.90
10247;DHT22;5168;47.854;7.944;2023-07-30T14:47:59;19.70;99.90
10247;DHT22;5168;47.854;7.944;2023-07-30T14:52:52;19.40;99.90
10247;DHT22;5168;47.854;7.944;2023-07-30T14:57:44;18.90;99.90
10247;DHT22;5168;47.854;7.944;2023-07-30T15:00:10;18.70;99.90
10247;DHT22;5168;47.854;7.944;2023-07-30T15:02:38;18.30;99.90
10247;DHT22;5168;47.854;7.944;2023-07-30T15:05:04;18.30;99.90
10247;DHT22;5168;47.854;7.944;2023-07-30T15:09:59;18.20;99.90
10247;DHT22;5168;47.854;7.944;2023-07-30T15:12:24;18.10;99.90
10247;DHT22;5168;47.854;7.944;2023-07-30T15:19:42;17.60;99.90
10247;DHT22;5168;47.854;7.944;2023-07-30T15:22:09;18.30;99.90
10247;DHT22;5168;47.854;7.944;2023-07-30T15:29:27;18.80;99.90
10247;DHT22;5168;47.854;7.944;2023-07-30T15:34:18;18.10;99.90
10247;DHT22;5168;47.854;7.944;2023-07-30T15:36:44;18.50;99.90
10247;DHT22;5168;47.854;7.944;2023-07-30T15:39:10;18.50;99.90
10247;DHT22;5168;47.854;7.944;2023-07-30T15:41:36;18.50;99.90
10247;DHT22;5168;47.854;7.944;2023-07-30T15:44:02;17.60;99.90
10247;DHT22;5168;47.854;7.944;2023-07-30T15:46:28;18.40;99.90
10247;DHT22;5168;47.854;7.944;2023-07-30T15:51:19;18.40;99.90
10247;DHT22;5168;47.854;7.944;2023-07-30T15:53:45;17.90;99.90
10247;DHT22;5168;47.854;7.944;2023-07-30T15:56:10;17.50;99.90
10247;DHT22;5168;47.854;7.944;2023-07-30T15:58:36;17.70;99.90
10247;DHT22;5168;47.854;7.944;2023-07-30T16:01:06;17.40;99.90
10247;DHT22;5168;47.854;7.944;2023-07-30T16:03:33;17.70;99.90
10247;DHT22;5168;47.854;7.944;2023-07-30T16:06:02;17.40;99.90
10247;DHT22;5168;47.854;7.944;2023-07-30T16:11:04;17.30;99.90
10247;DHT22;5168;47.854;7.944;2023-07-30T16:13:31;17.80;99.90
10247;DHT22;5168;47.854;7.944;2023-07-30T16:16:07;16.80;99.90
10247;DHT22;5168;47.854;7.944;2023-07-30T16:21:03;17.10;99.90
10247;DHT22;5168;47.854;7.944;2023-07-30T16:23:32;17.10;99.90
10247;DHT22;5168;47.854;7.944;2023-07-30T16:25:57;16.70;99.90
10247;DHT22;5168;47.854;7.944;2023-07-30T16:30:50;17.20;99.90
10247;DHT22;5168;47.854;7.944;2023-07-30T16:35:42;16.90;99.90
10247;DHT22;5168;47.854;7.944;2023-07-30T16:42:59;17.20;99.90
10247;DHT22;5168;47.854;7.944;2023-07-30T16:45:28;17.50;99.90
10247;DHT22;5168;47.854;7.944;2023-07-30T16:47:53;17.10;99.90
10247;DHT22;5168;47.854;7.944;2023-07-30T16:50:20;16.60;99.90
10247;DHT22;5168;47.854;7.944;2023-07-30T16:55:15;16.70;99.90
10247;DHT22;5168;47.854;7.944;2023-07-30T17:00:07;16.60;99.90
10247;DHT22;5168;47.854;7.944;2023-07-30T17:02:33;16.70;99.90
10247;DHT22;5168;47.854;7.944;2023-07-30T17:17:10;16.80;99.90
10247;DHT22;5168;47.854;7.944;2023-07-30T17:19:36;16.60;99.90
10247;DHT22;5168;47.854;7.944;2023-07-30T17:24:31;16.30;99.90
10247;DHT22;5168;47.854;7.944;2023-07-30T17:29:23;16.20;99.90
10247;DHT22;5168;47.854;7.944;2023-07-30T17:31:50;16.10;99.90
10247;DHT22;5168;47.854;7.944;2023-07-30T17:36:41;16.00;99.90
10247;DHT22;5168;47.854;7.944;2023-07-30T17:39:07;16.00;99.90
10247;DHT22;5168;47.854;7.944;2023-07-30T17:41:32;15.60;99.90
10247;DHT22;5168;47.854;7.944;2023-07-30T17:48:50;16.10;99.90
10247;DHT22;5168;47.854;7.944;2023-07-30T17:51:17;15.60;99.90
10247;DHT22;5168;47.854;7.944;2023-07-30T17:53:44;16.40;99.90
10247;DHT22;5168;47.854;7.944;2023-07-30T17:56:10;16.20;99.90
10247;DHT22;5168;47.854;7.944;2023-07-30T17:58:35;16.30;99.90
10247;DHT22;5168;47.854;7.944;2023-07-30T18:01:02;16.00;99.90
10247;DHT22;5168;47.854;7.944;2023-07-30T18:03:31;15.40;99.90
10247;DHT22;5168;47.854;7.944;2023-07-30T18:08:23;15.70;99.90
10247;DHT22;5168;47.854;7.944;2023-07-30T18:10:48;16.10;99.90
10247;DHT22;5168;47.854;7.944;2023-07-30T18:13:15;15.70;99.90
10247;DHT22;5168;47.854;7.944;2023-07-30T18:15:41;15.50;99.90
10247;DHT22;5168;47.854;7.944;2023-07-30T18:18:06;15.40;99.90
10247;DHT22;5168;47.854;7.944;2023-07-30T18:20:33;15.50;99.90
10247;DHT22;5168;47.854;7.944;2023-07-30T18:22:59;17.00;99.90
10247;DHT22;5168;47.854;7.944;2023-07-30T18:25:25;15.80;99.90
10247;DHT22;5168;47.854;7.944;2023-07-30T18:27:51;15.10;99.90
10247;DHT22;5168;47.854;7.944;2023-07-30T18:30:16;14.80;99.90
10247;DHT22;5168;47.854;7.944;2023-07-30T18:32:42;15.20;99.90
10247;DHT22;5168;47.854;7.944;2023-07-30T18:35:09;15.30;99.90
10247;DHT22;5168;47.854;7.944;2023-07-30T18:37:35;14.90;99.90
10247;DHT22;5168;47.854;7.944;2023-07-30T18:40:01;15.40;99.90
10247;DHT22;5168;47.854;7.944;2023-07-30T18:42:26;15.20;99.90
10247;DHT22;5168;47.854;7.944;2023-07-30T18:44:55;14.90;99.90
10247;DHT22;5168;47.854;7.944;2023-07-30T18:47:21;14.90;99.90
10247;DHT22;5168;47.854;7.944;2023-07-30T18:57:08;14.50;99.90
10247;DHT22;5168;47.854;7.944;2023-07-30T18:59:34;14.50;99.90
10247;DHT22;5168;47.854;7.944;2023-07-30T19:01:59;14.50;99.90
10247;DHT22;5168;47.854;7.944;2023-07-30T19:06:51;14.30;99.90
10247;DHT22;5168;47.854;7.944;2023-07-30T19:09:17;14.20;99.90
10247;DHT22;5168;47.854;7.944;2023-07-30T19:11:42;14.00;99.90
10247;DHT22;5168;47.854;7.944;2023-07-30T19:19:02;13.90;99.90
10247;DHT22;5168;47.854;7.944;2023-07-30T19:26:20;14.20;99.90
10247;DHT22;5168;47.854;7.944;2023-07-30T19:28:45;13.40;99.90
10247;DHT22;5168;47.854;7.944;2023-07-30T19:31:14;13.60;99.90
10247;DHT22;5168;47.854;7.944;2023-07-30T19:36:11;13.70;99.90
10247;DHT22;5168;47.854;7.944;2023-07-30T19:38:37;14.00;99.90
10247;DHT22;5168;47.854;7.944;2023-07-30T19:41:04;13.60;99.90
10247;DHT22;5168;47.854;7.944;2023-07-30T19:43:31;13.60;99.90
10247;DHT22;5168;47.854;7.944;2023-07-30T19:45:57;13.10;99.90
10247;DHT22;5168;47.854;7.944;2023-07-30T19:48:25;13.70;99.90
10247;DHT22;5168;47.854;7.944;2023-07-30T19:50:51;13.80;99.90
10247;DHT22;5168;47.854;7.944;2023-07-30T19:53:17;13.60;99.90
10247;DHT22;5168;47.854;7.944;2023-07-30T19:55:43;13.60;99.90
10247;DHT22;5168;47.854;7.944;2023-07-30T19:58:26;13.20;99.90
10247;DHT22;5168;47.854;7.944;2023-07-30T20:00:55;13.30;99.90
10247;DHT22;5168;47.854;7.944;2023-07-30T20:03:20;13.40;99.90
10247;DHT22;5168;47.854;7.944;2023-07-30T20:13:04;13.60;99.90
10247;DHT22;5168;47.854;7.944;2023-07-30T20:15:33;13.20;99.90
10247;DHT22;5168;47.854;7.944;2023-07-30T20:18:03;12.70;99.90
10247;DHT22;5168;47.854;7.944;2023-07-30T20:20:29;13.10;99.90
10247;DHT22;5168;47.854;7.944;2023-07-30T20:22:56;13.00;99.90
10247;DHT22;5168;47.854;7.944;2023-07-30T20:25:23;13.40;99.90
10247;DHT22;5168;47.854;7.944;2023-07-30T20:27:48;13.20;99.90
10247;DHT22;5168;47.854;7.944;2023-07-30T20:30:14;12.80;99.90
10247;DHT22;5168;47.854;7.944;2023-07-30T20:35:05;13.20;99.90
10247;DHT22;5168;47.854;7.944;2023-07-30T20:42:23;13.10;99.90
10247;DHT22;5168;47.854;7.944;2023-07-30T20:44:49;12.80;99.90
10247;DHT22;5168;47.854;7.944;2023-07-30T20:47:15;13.50;99.90
10247;DHT22;5168;47.854;7.944;2023-07-30T20:49:41;12.70;99.90
10247;DHT22;5168;47.854;7.944;2023-07-30T20:59:27;12.90;99.90
10247;DHT22;5168;47.854;7.944;2023-07-30T21:01:54;13.30;99.90
10247;DHT22;5168;47.854;7.944;2023-07-30T21:04:20;12.60;99.90
10247;DHT22;5168;47.854;7.944;2023-07-30T21:06:45;13.30;99.90
10247;DHT22;5168;47.854;7.944;2023-07-30T21:09:11;13.00;99.90
10247;DHT22;5168;47.854;7.944;2023-07-30T21:14:02;12.40;99.90
10247;DHT22;5168;47.854;7.944;2023-07-30T21:16:28;13.30;99.90
10247;DHT22;5168;47.854;7.944;2023-07-30T21:18:53;12.80;99.90
10247;DHT22;5168;47.854;7.944;2023-07-30T21:23:45;13.40;99.90
10247;DHT22;5168;47.854;7.944;2023-07-30T21:26:10;12.70;99.90
10247;DHT22;5168;47.854;7.944;2023-07-30T21:28:36;13.00;99.90
10247;DHT22;5168;47.854;7.944;2023-07-30T21:31:03;13.00;99.90
10247;DHT22;5168;47.854;7.944;2023-07-30T21:33:30;13.40;99.90
10247;DHT22;5168;47.854;7.944;2023-07-30T21:35:57;13.20;99.90
10247;DHT22;5168;47.854;7.944;2023-07-30T21:38:22;13.40;99.90
10247;DHT22;5168;47.854;7.944;2023-07-30T21:45:40;13.00;99.90
10247;DHT22;5168;47.854;7.944;2023-07-30T21:50:31;13.30;99.90
10247;DHT22;5168;47.854;7.944;2023-07-30T21:55:23;13.30;99.90
10247;DHT22;5168;47.854;7.944;2023-07-30T22:07:32;13.30;99.90
10247;DHT22;5168;47.854;7.944;2023-07-30T22:09:58;12.80;99.90
10247;DHT22;5168;47.854;7.944;2023-07-30T22:12:24;12.70;99.90
10247;DHT22;5168;47.854;7.944;2023-07-30T22:22:07;12.80;99.90
10247;DHT22;5168;47.854;7.944;2023-07-30T22:34:18;12.90;99.90
10247;DHT22;5168;47.854;7.944;2023-07-30T22:36:43;12.10;99.90
10247;DHT22;5168;47.854;7.944;2023-07-30T22:39:09;12.50;99.90
10247;DHT22;5168;47.854;7.944;2023-07-30T22:48:52;12.60;99.90
10247;DHT22;5168;47.854;7.944;2023-07-30T22:51:18;12.50;99.90
10247;DHT22;5168;47.854;7.944;2023-07-30T22:53:43;12.10;99.90
10247;DHT22;5168;47.854;7.944;2023-07-30T22:58:35;11.90;99.90
10247;DHT22;5168;47.854;7.944;2023-07-30T23:03:27;12.00;99.90
10247;DHT22;5168;47.854;7.944;2023-07-30T23:05:52;11.50;99.90
10247;DHT22;5168;47.854;7.944;2023-07-30T23:08:18;11.90;99.90
10247;DHT22;5168;47.854;7.944;2023-07-30T23:10:43;12.00;99.90
10247;DHT22;5168;47.854;7.944;2023-07-30T23:13:09;11.60;99.90